Latest METARs, TAFs and NOTAMs for SKCL


---------------------------------------------------------------------------
	(OBSERVATIONS)
SKCL 221500Z 14003KT 8000 SCT017 SCT090 24/17 A3005 RMK HZ=
SKCL 221400Z 21004KT 8000 FEW020 SCT090 BKN200 23/18 A3004 RMK
     HZ=
SKCL 221300Z 32003KT 8000 FEW030 BKN200 21/18 A3002 RMK HZ=
---------------------------------------------------------------------------
	(TERMINAL AREA FORECAST)
SKCL 221000Z 2212/2312 04005KT 9999 FEW020 SCT100 TEMPO 2214/2217
    13009KT 8000 SCT022
    BKN250 TEMPO 2219/2223 32006KT SCT023 PROB40 2221/2300 8000 VCSH
    SCT018TCU
    TX32/2219Z TN19/2311Z=
---------------------------------------------------------------------------
	(NOTAMS)


SKCL A1600/14 REMOTE ACFT STAND ZULU POINT INSTL COORD 033320,90W0762252,12W
    REF AIP COLOMBIA 2-SKCL-ADC. 09 JUN 20:30 2014 UNTIL PERM.
    CREATED: 02 JUL 12:25 2014

SKCL A2175/14 TWY A,B,C,C1,C2,D,E,F,G WIP, EXER CTN. H24, 31
    JUL 13:40 2014 UNTIL 31 OCT 23:59 2014. CREATED: 31 JUL 13:45
    2014

SKCL A2176/14 APRON, CARGO APRON AND DECONGESTION APRON WIP,
    EXER CTN. H24, 31 JUL 13:50 2014 UNTIL 31 OCT 23:59 2014.
    CREATED: 31 JUL 13:59 2014

SKCL A2177/14 RWY 01/19 TURNING BAY LTD, ACFT PROHIBITED PARALLEL
    OR ONE SURPASSES THE OTHER ACFT, EXER CTN. H24, 31 JUL 14:50
    2014 UNTIL 31 OCT 23:59 2014. CREATED: 31 JUL 14:50 2014

SKCL A2219/14 SEQUENCED FLG LGT RWY 01 U/S. 04 AUG 14:50 2014
    UNTIL 04 NOV 23:59 2014 ESTIMATED. CREATED: 04 AUG 14:55
    2014

SKCL A2324/14 MOV AREA WO VERTICAL SIGNALLING, EXER CTN. H24,
    15 AUG 21:30 2014 UNTIL 30 NOV 23:59 2014. CREATED: 15 AUG
    22:18 2014

SKCL A2398/14 AVGAS 100/130 NOT AVBL. 22 AUG 10:49 2014 UNTIL
    22 AUG 23:59 2014. CREATED: 22 AUG 10:50 2014

SKCL V0094/14 [DOD PROCEDURAL NOTAM] INSTRUMENT APPROACH PROCEDURE
    CHANGED DUE TO HOST CHANGE: ILS RWY 01 AMDT 1: MSA 120-200
    11700FT, 200-350 16100FT, 350-120 15300FT. FAF CROSSING ALTITUDE
    5700FT. MAP 7.1 DME/CLO. VOR RWY 19 ORIG; ANKIN 5A, 5B DEP;
    BUN 6A DEP; BUN 6C DEP - MSA 120-200 11700FT, 200-350 16100FT,
    350-120 15300FT. 23 JUL 22:35 2014 UNTIL 18 SEP 23:59 2014.
    CREATED: 23 JUL 22:36 2014

---------------------------------------------------------------------------